Terminal Aerodrome Forecast
Issued by NWS Pittsburgh, PA

Current Version | Previous Version | Graphics & Text | Print | Product List | Glossary On
Versions: 1 2 3 4 5 6 7 8 9 10 11 12 13 14 15 16 17 18 19 20 21 22 23 24 25 26 27 28 29 30
000
FTUS41 KPBZ 190539
TAFPIT
TAF
KPIT 190539Z 1906/2012 06008KT P6SM BKN250
     FM191000 06007KT P6SM BKN100 WS020/14030KT
     FM191400 12012G22KT P6SM BKN150
     FM192200 13012G22KT 5SM -SHRA OVC035=

USA.gov is the U.S. government's official web portal to all federal, state and local government web resources and services.